Time;durP1;ratioP1;P1;durP2;ratioP2;P2;SDS_P1;SDS_P2;PMS_P1;PMS_P2;Temp;Humidity;BMP_temperature;BMP_pressure;BME280_temperature;BME280_humidity;BME280_pressure;Samples;Min_cycle;Max_cycle;Signal;HPM_P1;HPM_P2
2023/05/07 00:00:33;;;;;;;;;;;14.90;94.40;;;;;;5048317;28;19920;-69
2023/05/07 00:02:59;;;;;;;;;;;14.90;94.50;;;;;;5048132;28;19917;-69
2023/05/07 00:05:25;;;;;;;;;;;14.90;94.50;;;;;;5048554;28;19988;-69
2023/05/07 00:07:52;;;;;;;;;;;14.90;94.50;;;;;;5048602;27;19944;-69
2023/05/07 00:10:18;;;;;;;;;;;14.90;94.40;;;;;;5048535;27;19913;-69
2023/05/07 00:12:44;;;;;;;;;;;14.80;94.50;;;;;;5047915;28;19965;-69
2023/05/07 00:15:09;;;;;;;;;;;14.80;94.50;;;;;;5048275;28;19916;-69
2023/05/07 00:17:35;;;;;;;;;;;14.80;94.50;;;;;;5048119;28;19920;-69
2023/05/07 00:20:01;;;;;;;;;;;14.80;94.50;;;;;;5043753;28;20347;-69
2023/05/07 00:22:26;;;;;;;;;;;14.80;94.60;;;;;;5047988;28;20012;-69
2023/05/07 00:24:52;;;;;;;;;;;14.80;94.60;;;;;;5048259;28;20269;-69
2023/05/07 00:27:17;;;;;;;;;;;14.80;94.60;;;;;;5048199;28;20297;-68
2023/05/07 00:29:43;;;;;;;;;;;14.70;94.70;;;;;;5048224;28;19921;-69
2023/05/07 00:32:08;;;;;;;;;;;14.70;94.60;;;;;;5047545;28;19923;-69
2023/05/07 00:34:34;;;;;;;;;;;14.80;94.70;;;;;;5048045;28;19913;-69
2023/05/07 00:37:00;;;;;;;;;;;14.70;94.70;;;;;;5030087;28;19983;-69
2023/05/07 00:39:26;;;;;;;;;;;14.70;94.70;;;;;;5048296;28;19913;-69
2023/05/07 00:41:52;;;;;;;;;;;14.70;94.70;;;;;;5047698;28;20000;-69
2023/05/07 00:44:18;;;;;;;;;;;14.70;95.10;;;;;;5047841;28;20011;-69
2023/05/07 00:46:44;;;;;;;;;;;14.70;94.80;;;;;;5029783;28;20003;-69
2023/05/07 00:49:10;;;;;;;;;;;14.70;94.70;;;;;;5047878;28;20592;-68
2023/05/07 00:51:36;;;;;;;;;;;14.70;94.90;;;;;;5047817;28;19913;-69
2023/05/07 00:54:02;;;;;;;;;;;14.60;94.80;;;;;;5045728;28;20337;-68
2023/05/07 00:56:28;;;;;;;;;;;14.60;94.80;;;;;;5044999;28;19909;-69
2023/05/07 00:58:53;;;;;;;;;;;14.60;94.90;;;;;;5047505;28;19913;-69
2023/05/07 01:01:19;;;;;;;;;;;14.60;94.90;;;;;;5047532;28;19913;-69
2023/05/07 01:03:45;;;;;;;;;;;14.60;94.90;;;;;;5047029;28;20460;-69
2023/05/07 01:06:12;;;;;;;;;;;14.60;94.90;;;;;;5047738;28;19917;-69
2023/05/07 01:08:39;;;;;;;;;;;14.60;94.90;;;;;;5047483;28;19920;-69
2023/05/07 01:11:05;;;;;;;;;;;14.60;95.00;;;;;;5047581;28;19912;-69
2023/05/07 01:13:31;;;;;;;;;;;14.60;94.90;;;;;;5046504;28;20563;-69
2023/05/07 01:15:57;;;;;;;;;;;14.60;95.00;;;;;;5047379;28;19973;-69
2023/05/07 01:18:22;;;;;;;;;;;14.50;95.00;;;;;;5046873;28;20007;-68
2023/05/07 01:20:48;;;;;;;;;;;14.50;95.00;;;;;;5044405;28;19919;-69
2023/05/07 01:23:14;;;;;;;;;;;14.50;95.00;;;;;;5042976;28;19916;-69
2023/05/07 01:25:40;;;;;;;;;;;14.50;95.30;;;;;;5047021;28;19913;-69
2023/05/07 01:28:06;;;;;;;;;;;14.50;95.10;;;;;;5046863;27;19920;-69
2023/05/07 01:30:32;;;;;;;;;;;14.50;95.10;;;;;;5046916;28;19916;-69
2023/05/07 01:33:00;;;;;;;;;;;14.50;95.10;;;;;;5046201;28;20280;-69
2023/05/07 01:35:30;;;;;;;;;;;14.50;95.20;;;;;;5047027;28;20010;-69
2023/05/07 01:37:56;;;;;;;;;;;14.50;95.20;;;;;;5046802;28;19912;-69
2023/05/07 01:40:22;;;;;;;;;;;14.50;95.20;;;;;;5046844;28;20359;-69
2023/05/07 01:42:48;;;;;;;;;;;14.40;95.10;;;;;;5028623;28;19944;-69
2023/05/07 01:45:13;;;;;;;;;;;14.50;95.10;;;;;;5046978;28;19971;-69
2023/05/07 01:47:39;;;;;;;;;;;14.40;95.10;;;;;;5028467;28;19913;-69
2023/05/07 01:50:08;;;;;;;;;;;14.40;95.10;;;;;;5046695;28;19913;-69
2023/05/07 01:52:34;;;;;;;;;;;14.40;95.20;;;;;;5046343;28;19927;-68
2023/05/07 01:55:00;;;;;;;;;;;14.40;95.10;;;;;;5046171;28;20004;-69
2023/05/07 01:57:25;;;;;;;;;;;14.40;95.10;;;;;;5046412;28;19988;-69
2023/05/07 01:59:51;;;;;;;;;;;14.40;95.20;;;;;;5046592;28;20438;-69
2023/05/07 02:02:16;;;;;;;;;;;14.40;95.20;;;;;;5046115;28;20585;-69
2023/05/07 02:04:42;;;;;;;;;;;14.40;95.20;;;;;;5046293;28;19917;-69
2023/05/07 02:07:07;;;;;;;;;;;14.40;95.10;;;;;;5028610;28;19920;-68
2023/05/07 02:09:33;;;;;;;;;;;14.30;95.20;;;;;;5027695;28;19955;-68
2023/05/07 02:11:58;;;;;;;;;;;14.30;95.10;;;;;;5045923;28;20031;-69
2023/05/07 02:14:25;;;;;;;;;;;14.30;95.20;;;;;;5046573;28;19969;-68
2023/05/07 02:16:51;;;;;;;;;;;14.30;95.10;;;;;;5046288;28;20321;-69
2023/05/07 02:19:16;;;;;;;;;;;14.30;95.20;;;;;;5046313;28;20015;-69
2023/05/07 02:21:42;;;;;;;;;;;14.30;95.10;;;;;;5046359;28;19932;-69
2023/05/07 02:24:07;;;;;;;;;;;14.30;95.10;;;;;;5043654;28;20271;-69
2023/05/07 02:26:34;;;;;;;;;;;14.30;95.10;;;;;;5046485;28;19916;-69
2023/05/07 02:28:59;;;;;;;;;;;14.20;95.10;;;;;;5046284;28;19916;-69
2023/05/07 02:31:25;;;;;;;;;;;14.20;95.00;;;;;;5046283;28;19913;-69
2023/05/07 02:33:50;;;;;;;;;;;14.30;95.00;;;;;;5045478;28;19916;-69
2023/05/07 02:36:16;;;;;;;;;;;14.20;95.00;;;;;;5046288;28;20352;-68
2023/05/07 02:38:41;;;;;;;;;;;14.20;95.10;;;;;;5028138;28;19917;-68
2023/05/07 02:41:07;;;;;;;;;;;14.20;95.10;;;;;;5046072;28;19917;-69
2023/05/07 02:43:32;;;;;;;;;;;14.20;95.10;;;;;;5045524;28;20016;-68
2023/05/07 02:46:02;;;;;;;;;;;14.20;95.10;;;;;;5045944;28;19995;-68
2023/05/07 02:48:28;;;;;;;;;;;14.20;95.10;;;;;;5045646;28;19919;-68
2023/05/07 02:50:53;;;;;;;;;;;14.20;95.10;;;;;;5045668;28;19909;-68
2023/05/07 02:53:19;;;;;;;;;;;14.20;95.10;;;;;;5045415;28;19913;-69
2023/05/07 02:55:44;;;;;;;;;;;14.20;95.20;;;;;;5045054;28;19916;-69
2023/05/07 02:58:10;;;;;;;;;;;14.20;95.20;;;;;;5045540;28;19912;-68
2023/05/07 03:00:35;;;;;;;;;;;14.10;95.10;;;;;;5045705;28;19955;-69
2023/05/07 03:03:01;;;;;;;;;;;14.10;95.20;;;;;;5045277;28;19999;-69
2023/05/07 03:05:26;;;;;;;;;;;14.10;95.50;;;;;;5045636;28;20607;-68
2023/05/07 03:07:52;;;;;;;;;;;14.10;95.20;;;;;;5045553;28;19913;-69
2023/05/07 03:10:18;;;;;;;;;;;14.10;95.30;;;;;;5045699;28;20024;-68
2023/05/07 03:12:44;;;;;;;;;;;14.10;95.40;;;;;;5045000;28;19920;-69
2023/05/07 03:15:10;;;;;;;;;;;14.10;95.30;;;;;;5041319;28;19921;-69
2023/05/07 03:17:36;;;;;;;;;;;14.00;95.30;;;;;;5033888;28;19921;-69
2023/05/07 03:20:01;;;;;;;;;;;14.10;95.30;;;;;;5039124;28;19913;-69
2023/05/07 03:22:27;;;;;;;;;;;14.00;95.30;;;;;;5027283;28;20616;-68
2023/05/07 03:24:52;;;;;;;;;;;14.00;95.30;;;;;;5045313;28;19913;-68
2023/05/07 03:27:18;;;;;;;;;;;14.00;95.20;;;;;;5045416;28;19919;-69
2023/05/07 03:29:43;;;;;;;;;;;14.00;95.30;;;;;;5045094;28;20022;-68
2023/05/07 03:32:09;;;;;;;;;;;14.00;95.20;;;;;;5044965;28;19960;-68
2023/05/07 03:34:34;;;;;;;;;;;14.00;95.30;;;;;;5045177;28;19913;-69
2023/05/07 03:37:00;;;;;;;;;;;14.00;95.20;;;;;;5032403;28;19917;-69
2023/05/07 03:39:25;;;;;;;;;;;14.00;95.30;;;;;;5025374;28;19920;-69
2023/05/07 03:41:51;;;;;;;;;;;14.00;95.40;;;;;;5038479;28;19916;-69
2023/05/07 03:44:16;;;;;;;;;;;13.90;95.20;;;;;;5026961;28;19920;-69
2023/05/07 03:46:42;;;;;;;;;;;13.90;95.30;;;;;;5045287;28;20397;-69
2023/05/07 03:49:07;;;;;;;;;;;13.90;95.30;;;;;;5044789;28;19943;-69
2023/05/07 03:51:33;;;;;;;;;;;13.90;95.30;;;;;;5045263;28;19912;-68
2023/05/07 03:53:58;;;;;;;;;;;13.90;95.30;;;;;;5043675;28;19940;-68
2023/05/07 03:56:26;;;;;;;;;;;13.90;95.30;;;;;;5025164;28;19920;-68
2023/05/07 03:58:52;;;;;;;;;;;13.90;95.60;;;;;;5025007;28;19917;-69
2023/05/07 04:01:17;;;;;;;;;;;13.90;95.40;;;;;;5025226;28;19966;-69
2023/05/07 04:03:43;;;;;;;;;;;13.90;95.40;;;;;;5037295;28;20373;-69
2023/05/07 04:06:08;;;;;;;;;;;13.90;95.40;;;;;;5045083;28;20345;-68
2023/05/07 04:08:34;;;;;;;;;;;13.80;95.30;;;;;;5045023;28;19920;-68
2023/05/07 04:10:59;;;;;;;;;;;13.80;95.30;;;;;;5044916;28;19924;-69
2023/05/07 04:13:25;;;;;;;;;;;13.90;95.30;;;;;;5043809;28;20398;-68
2023/05/07 04:15:51;;;;;;;;;;;13.80;95.30;;;;;;5044639;28;19913;-69
2023/05/07 04:18:16;;;;;;;;;;;13.80;95.30;;;;;;5026818;28;19913;-69
2023/05/07 04:20:42;;;;;;;;;;;13.80;95.30;;;;;;5044736;28;19964;-68
2023/05/07 04:23:08;;;;;;;;;;;13.80;95.30;;;;;;5026626;28;20388;-69
2023/05/07 04:25:33;;;;;;;;;;;13.80;95.20;;;;;;5044636;28;20050;-69
2023/05/07 04:27:59;;;;;;;;;;;13.80;95.20;;;;;;5044507;28;19909;-69
2023/05/07 04:30:24;;;;;;;;;;;13.80;95.20;;;;;;5044924;28;19917;-69
2023/05/07 04:32:50;;;;;;;;;;;13.80;95.20;;;;;;5046127;28;20665;-69
2023/05/07 04:35:16;;;;;;;;;;;13.80;95.20;;;;;;5030426;28;20313;-68
2023/05/07 04:37:42;;;;;;;;;;;13.80;95.10;;;;;;5030070;28;19965;-69
2023/05/07 04:40:07;;;;;;;;;;;13.80;95.20;;;;;;5048043;28;20301;-69
2023/05/07 04:42:33;;;;;;;;;;;13.80;95.20;;;;;;5047466;28;20526;-69
2023/05/07 04:44:58;;;;;;;;;;;13.80;95.20;;;;;;5047947;28;19913;-68
2023/05/07 04:47:24;;;;;;;;;;;13.80;95.10;;;;;;5047589;28;19913;-69
2023/05/07 04:49:49;;;;;;;;;;;13.80;95.10;;;;;;5047621;28;19980;-69
2023/05/07 04:52:15;;;;;;;;;;;13.80;95.10;;;;;;5029548;28;19984;-69
2023/05/07 04:54:41;;;;;;;;;;;13.80;95.00;;;;;;5047235;28;19913;-68
2023/05/07 04:57:06;;;;;;;;;;;13.80;94.90;;;;;;5047272;27;19928;-68
2023/05/07 04:59:32;;;;;;;;;;;13.80;94.80;;;;;;5047430;28;19963;-69
2023/05/07 05:01:57;;;;;;;;;;;13.80;94.90;;;;;;5047301;28;19920;-69
2023/05/07 05:04:23;;;;;;;;;;;13.80;94.90;;;;;;5047101;28;19981;-68
2023/05/07 05:06:48;;;;;;;;;;;13.80;94.60;;;;;;5047331;28;19912;-69
2023/05/07 05:09:15;;;;;;;;;;;13.80;94.80;;;;;;5029484;28;19920;-68
2023/05/07 05:11:41;;;;;;;;;;;13.80;94.70;;;;;;5047298;28;19920;-69
2023/05/07 05:14:06;;;;;;;;;;;13.90;94.70;;;;;;5047001;28;19921;-69
2023/05/07 05:16:32;;;;;;;;;;;13.90;94.80;;;;;;5047504;28;20488;-69
2023/05/07 05:18:58;;;;;;;;;;;13.90;94.80;;;;;;5029204;28;19920;-68
2023/05/07 05:21:23;;;;;;;;;;;13.90;94.80;;;;;;5046912;28;19923;-69
2023/05/07 05:23:51;;;;;;;;;;;13.90;94.80;;;;;;5046298;28;20299;-69
2023/05/07 05:26:17;;;;;;;;;;;13.90;94.80;;;;;;5029356;28;20541;-69
2023/05/07 05:28:42;;;;;;;;;;;13.90;94.70;;;;;;5046908;28;19913;-68
2023/05/07 05:31:08;;;;;;;;;;;13.90;94.70;;;;;;5047088;28;19913;-69
2023/05/07 05:33:34;;;;;;;;;;;13.90;94.90;;;;;;5028824;28;19917;-69
2023/05/07 05:35:59;;;;;;;;;;;13.90;94.90;;;;;;5047184;28;19909;-69
2023/05/07 05:38:25;;;;;;;;;;;13.90;94.90;;;;;;5047306;28;20004;-69
2023/05/07 05:40:51;;;;;;;;;;;14.00;94.70;;;;;;5029071;28;19913;-69
2023/05/07 05:43:16;;;;;;;;;;;14.00;94.70;;;;;;5046451;28;19972;-69
2023/05/07 05:45:42;;;;;;;;;;;14.00;94.90;;;;;;5029184;28;19996;-69
2023/05/07 05:48:08;;;;;;;;;;;14.00;94.70;;;;;;5046648;28;20016;-69
2023/05/07 05:50:35;;;;;;;;;;;14.00;94.50;;;;;;5047208;28;20003;-69
2023/05/07 05:53:01;;;;;;;;;;;14.00;94.50;;;;;;5046632;28;19917;-69
2023/05/07 05:55:26;;;;;;;;;;;14.00;94.40;;;;;;5046236;28;19916;-68
2023/05/07 05:57:52;;;;;;;;;;;14.00;94.50;;;;;;5046423;28;19920;-69
2023/05/07 06:00:17;;;;;;;;;;;14.10;94.50;;;;;;5046697;28;20453;-69
2023/05/07 06:02:43;;;;;;;;;;;14.10;94.50;;;;;;5046318;28;20345;-68
2023/05/07 06:05:09;;;;;;;;;;;14.10;94.40;;;;;;5046810;28;19913;-69
2023/05/07 06:07:34;;;;;;;;;;;14.10;94.30;;;;;;5046335;28;20015;-68
2023/05/07 06:10:00;;;;;;;;;;;14.20;94.30;;;;;;5047283;28;20365;-69
2023/05/07 06:12:26;;;;;;;;;;;14.20;94.60;;;;;;5046052;28;20012;-69
2023/05/07 06:14:52;;;;;;;;;;;14.20;94.40;;;;;;5046930;28;20322;-69
2023/05/07 06:17:18;;;;;;;;;;;14.20;94.30;;;;;;5046423;28;19934;-68
2023/05/07 06:19:43;;;;;;;;;;;14.30;94.20;;;;;;5046535;28;20007;-69
2023/05/07 06:22:09;;;;;;;;;;;14.30;94.20;;;;;;5045734;28;20525;-69
2023/05/07 06:24:34;;;;;;;;;;;14.40;94.10;;;;;;5046022;28;19959;-68
2023/05/07 06:27:00;;;;;;;;;;;14.40;94.10;;;;;;5046061;28;20460;-69
2023/05/07 06:29:30;;;;;;;;;;;14.40;94.10;;;;;;5048629;27;19920;-69
2023/05/07 06:31:55;;;;;;;;;;;14.40;94.10;;;;;;5042797;28;19923;-69
2023/05/07 06:34:21;;;;;;;;;;;14.50;94.00;;;;;;5045377;28;19917;-69
2023/05/07 06:36:46;;;;;;;;;;;14.50;93.90;;;;;;5046122;28;20288;-69
2023/05/07 06:39:12;;;;;;;;;;;14.60;93.90;;;;;;5046245;28;19909;-69
2023/05/07 06:41:38;;;;;;;;;;;14.60;93.80;;;;;;5046195;28;19916;-69
2023/05/07 06:44:04;;;;;;;;;;;14.60;93.70;;;;;;5045823;28;19909;-68
2023/05/07 06:46:30;;;;;;;;;;;14.70;93.70;;;;;;5046386;28;19913;-69
2023/05/07 06:48:56;;;;;;;;;;;14.70;93.70;;;;;;5027904;28;19966;-69
2023/05/07 06:51:22;;;;;;;;;;;14.70;93.70;;;;;;5045684;28;19969;-68
2023/05/07 06:53:48;;;;;;;;;;;14.70;93.70;;;;;;5045346;28;19920;-69
2023/05/07 06:56:13;;;;;;;;;;;14.80;93.60;;;;;;5041493;28;19909;-69
2023/05/07 06:58:39;;;;;;;;;;;14.80;93.60;;;;;;5045017;28;19913;-69
2023/05/07 07:01:04;;;;;;;;;;;14.80;93.60;;;;;;5040140;28;19916;-69
2023/05/07 07:03:30;;;;;;;;;;;14.90;93.80;;;;;;5045335;28;19916;-69
2023/05/07 07:05:55;;;;;;;;;;;14.90;93.50;;;;;;5045692;28;19912;-69
2023/05/07 07:08:21;;;;;;;;;;;14.90;93.50;;;;;;5045653;28;19917;-69
2023/05/07 07:10:47;;;;;;;;;;;15.00;93.50;;;;;;5045405;28;20297;-69
2023/05/07 07:13:12;;;;;;;;;;;15.00;93.40;;;;;;5044948;28;19912;-69
2023/05/07 07:15:38;;;;;;;;;;;15.10;93.40;;;;;;5041726;28;19923;-69
2023/05/07 07:18:04;;;;;;;;;;;15.10;93.40;;;;;;5045281;28;20256;-69
2023/05/07 07:20:29;;;;;;;;;;;15.10;93.30;;;;;;5027640;28;19965;-69
2023/05/07 07:22:55;;;;;;;;;;;15.20;93.30;;;;;;5044735;28;19932;-69
2023/05/07 07:25:20;;;;;;;;;;;15.20;93.20;;;;;;5045404;28;19916;-69
2023/05/07 07:27:46;;;;;;;;;;;15.30;93.20;;;;;;5045098;28;19981;-69
2023/05/07 07:30:11;;;;;;;;;;;15.30;93.20;;;;;;5045355;28;19909;-69
2023/05/07 07:32:37;;;;;;;;;;;15.30;93.20;;;;;;5044904;28;19928;-69
2023/05/07 07:35:02;;;;;;;;;;;15.40;93.20;;;;;;5045425;28;20365;-69
2023/05/07 07:37:28;;;;;;;;;;;15.40;93.10;;;;;;5043797;28;19912;-69
2023/05/07 07:39:54;;;;;;;;;;;15.40;93.10;;;;;;5045311;28;19913;-69
2023/05/07 07:42:20;;;;;;;;;;;15.40;93.10;;;;;;5044691;28;19958;-69
2023/05/07 07:44:45;;;;;;;;;;;15.50;93.10;;;;;;5045029;28;19940;-69
2023/05/07 07:47:11;;;;;;;;;;;15.50;93.00;;;;;;5045278;28;19954;-69
2023/05/07 07:49:36;;;;;;;;;;;15.60;93.10;;;;;;5045017;28;19944;-68
2023/05/07 07:52:02;;;;;;;;;;;15.60;93.00;;;;;;5044858;28;19920;-69
2023/05/07 07:54:29;;;;;;;;;;;15.60;93.00;;;;;;5044244;28;20043;-69
2023/05/07 07:56:54;;;;;;;;;;;15.70;92.90;;;;;;5044520;28;19913;-69
2023/05/07 07:59:20;;;;;;;;;;;15.80;92.90;;;;;;5043896;28;20504;-69
2023/05/07 08:01:48;;;;;;;;;;;15.80;92.80;;;;;;5042975;28;19917;-69
2023/05/07 08:04:13;;;;;;;;;;;15.90;92.90;;;;;;5039483;28;19961;-69
2023/05/07 08:06:39;;;;;;;;;;;15.90;92.80;;;;;;5044033;28;19933;-69
2023/05/07 08:09:04;;;;;;;;;;;15.90;92.70;;;;;;5046924;28;19912;-69
2023/05/07 08:11:30;;;;;;;;;;;16.00;92.70;;;;;;5047092;28;20784;-69
2023/05/07 08:13:56;;;;;;;;;;;16.00;92.60;;;;;;5046314;28;19927;-69
2023/05/07 08:16:21;;;;;;;;;;;16.10;92.60;;;;;;5047258;28;19920;-69
2023/05/07 08:18:47;;;;;;;;;;;16.10;92.60;;;;;;5046926;28;19919;-69
2023/05/07 08:21:12;;;;;;;;;;;16.10;92.50;;;;;;5042844;28;20373;-69
2023/05/07 08:23:38;;;;;;;;;;;16.10;92.50;;;;;;5047220;28;19919;-69
2023/05/07 08:26:03;;;;;;;;;;;16.20;92.60;;;;;;5048206;28;19915;-69
2023/05/07 08:28:29;;;;;;;;;;;16.30;92.50;;;;;;5047777;28;19913;-67
2023/05/07 08:30:56;;;;;;;;;;;16.40;92.50;;;;;;5047980;28;20016;-69
2023/05/07 08:33:22;;;;;;;;;;;16.40;92.40;;;;;;5047674;28;19923;-69
2023/05/07 08:35:47;;;;;;;;;;;16.40;92.40;;;;;;5047859;28;19913;-69
2023/05/07 08:38:13;;;;;;;;;;;16.50;92.40;;;;;;5047751;28;19916;-69
2023/05/07 08:40:39;;;;;;;;;;;16.50;92.40;;;;;;5047945;28;20325;-69
2023/05/07 08:43:07;;;;;;;;;;;16.60;92.20;;;;;;5047395;28;19913;-69
2023/05/07 08:45:33;;;;;;;;;;;16.70;92.10;;;;;;5047778;28;20012;-69
2023/05/07 08:48:01;;;;;;;;;;;16.70;92.10;;;;;;5029601;28;19913;-69
2023/05/07 08:50:27;;;;;;;;;;;16.80;92.20;;;;;;5047869;28;19920;-69
2023/05/07 08:52:52;;;;;;;;;;;16.90;92.00;;;;;;5047321;28;19916;-69
2023/05/07 08:55:18;;;;;;;;;;;16.90;92.00;;;;;;5029166;28;20345;-69
2023/05/07 08:57:43;;;;;;;;;;;17.00;91.90;;;;;;5047278;28;19961;-69
2023/05/07 09:00:09;;;;;;;;;;;17.10;91.90;;;;;;5047766;28;19935;-69
2023/05/07 09:02:35;;;;;;;;;;;17.10;91.80;;;;;;5028876;28;20274;-69
2023/05/07 09:05:00;;;;;;;;;;;17.20;91.70;;;;;;5047814;28;19978;-69
2023/05/07 09:07:26;;;;;;;;;;;17.20;91.70;;;;;;5047490;28;19913;-69
2023/05/07 09:09:52;;;;;;;;;;;17.30;91.80;;;;;;5047218;28;19913;-69
2023/05/07 09:12:18;;;;;;;;;;;17.30;91.80;;;;;;5046982;28;19909;-69
2023/05/07 09:14:44;;;;;;;;;;;17.30;91.80;;;;;;5045523;27;19932;-69
2023/05/07 09:17:10;;;;;;;;;;;17.40;91.80;;;;;;5036707;28;20546;-69
2023/05/07 09:19:35;;;;;;;;;;;17.40;91.70;;;;;;5037299;28;19946;-69
2023/05/07 09:22:02;;;;;;;;;;;17.50;91.70;;;;;;5046633;28;19920;-69
2023/05/07 09:24:30;;;;;;;;;;;17.50;91.70;;;;;;5046762;28;19917;-69
2023/05/07 09:26:57;;;;;;;;;;;17.50;91.60;;;;;;5012821;28;19912;-69
2023/05/07 09:29:23;;;;;;;;;;;17.60;91.50;;;;;;5046775;28;19919;-69
2023/05/07 09:31:48;;;;;;;;;;;17.70;91.60;;;;;;5046805;28;19912;-69
2023/05/07 09:34:14;;;;;;;;;;;17.80;91.50;;;;;;5046609;28;19916;-69
2023/05/07 09:36:39;;;;;;;;;;;17.80;91.60;;;;;;5038021;28;19920;-67
2023/05/07 09:39:05;;;;;;;;;;;17.90;91.50;;;;;;5026787;28;19913;-70
2023/05/07 09:41:32;;;;;;;;;;;18.00;91.40;;;;;;5037555;28;19913;-70
2023/05/07 09:43:57;;;;;;;;;;;18.00;91.30;;;;;;5061467;28;20003;-71
2023/05/07 09:46:27;;;;;;;;;;;18.10;91.30;;;;;;5046719;28;20004;-71
2023/05/07 09:48:56;;;;;;;;;;;18.10;91.30;;;;;;5046004;28;19945;-70
2023/05/07 09:51:21;;;;;;;;;;;18.20;91.40;;;;;;5046025;28;19959;-70
2023/05/07 09:53:48;;;;;;;;;;;18.20;91.50;;;;;;5031474;27;20019;-70
2023/05/07 09:56:14;;;;;;;;;;;18.30;91.30;;;;;;5034859;28;20560;-70
2023/05/07 09:58:41;;;;;;;;;;;18.40;91.30;;;;;;5041110;28;20007;-70
2023/05/07 10:01:06;;;;;;;;;;;18.40;91.10;;;;;;5045806;28;19913;-70
2023/05/07 10:03:33;;;;;;;;;;;18.50;91.10;;;;;;5045582;28;19909;-70
2023/05/07 10:05:59;;;;;;;;;;;18.50;90.90;;;;;;5046134;28;19908;-71
2023/05/07 10:08:24;;;;;;;;;;;18.60;90.90;;;;;;5045623;28;19917;-70
2023/05/07 10:10:50;;;;;;;;;;;18.70;90.90;;;;;;5045615;28;20501;-70
2023/05/07 10:13:16;;;;;;;;;;;18.70;90.90;;;;;;5039708;28;19959;-70
2023/05/07 10:15:42;;;;;;;;;;;18.80;90.70;;;;;;5034746;28;19924;-70
2023/05/07 10:18:08;;;;;;;;;;;18.90;90.60;;;;;;5045185;28;19939;-70
2023/05/07 10:20:34;;;;;;;;;;;19.00;90.50;;;;;;5045169;28;19995;-70
2023/05/07 10:23:03;;;;;;;;;;;19.10;90.40;;;;;;5043741;28;19916;-70
2023/05/07 10:25:30;;;;;;;;;;;19.20;90.30;;;;;;5045602;28;19931;-70
2023/05/07 10:27:58;;;;;;;;;;;19.30;90.40;;;;;;5045954;28;19987;-70
2023/05/07 10:30:30;;;;;;;;;;;19.30;90.40;;;;;;5045180;28;19915;-70
2023/05/07 10:32:56;;;;;;;;;;;19.40;90.50;;;;;;5045268;28;19997;-70
2023/05/07 10:35:26;;;;;;;;;;;19.40;90.60;;;;;;5045789;28;20422;-70
2023/05/07 10:37:52;;;;;;;;;;;19.50;90.50;;;;;;5045537;28;19915;-70
2023/05/07 10:40:19;;;;;;;;;;;19.50;90.50;;;;;;5046113;28;20369;-70
2023/05/07 10:42:55;;;;;;;;;;;19.60;90.50;;;;;;5027537;28;20278;-70
2023/05/07 10:45:21;;;;;;;;;;;19.60;90.50;;;;;;5028006;28;19952;-70
2023/05/07 10:48:05;;;;;;;;;;;19.70;90.50;;;;;;5045752;28;20676;-70
2023/05/07 10:50:31;;;;;;;;;;;19.70;90.60;;;;;;5045686;28;19919;-70
2023/05/07 10:53:15;;;;;;;;;;;19.80;90.50;;;;;;5045108;28;19917;-71
2023/05/07 10:55:41;;;;;;;;;;;19.80;90.40;;;;;;5041806;28;19920;-70
2023/05/07 10:58:21;;;;;;;;;;;19.90;90.40;;;;;;5045110;28;19913;-70
2023/05/07 11:00:50;;;;;;;;;;;20.00;90.20;;;;;;5045827;28;19957;-70
2023/05/07 11:03:15;;;;;;;;;;;20.00;90.20;;;;;;5045218;28;19913;-70
2023/05/07 11:05:41;;;;;;;;;;;20.00;90.30;;;;;;5027509;28;20396;-70
2023/05/07 11:08:07;;;;;;;;;;;20.10;90.40;;;;;;5045246;28;20015;-70
2023/05/07 11:10:51;;;;;;;;;;;20.10;90.50;;;;;;5045323;28;19916;-70
2023/05/07 11:13:17;;;;;;;;;;;20.10;90.40;;;;;;5044897;28;19917;-70
2023/05/07 11:15:46;;;;;;;;;;;20.10;90.40;;;;;;5045407;28;19913;-70
2023/05/07 11:18:12;;;;;;;;;;;20.10;90.50;;;;;;5027293;28;19976;-69
2023/05/07 11:20:47;;;;;;;;;;;20.10;90.50;;;;;;5045448;28;20567;-68
2023/05/07 11:23:31;;;;;;;;;;;20.10;90.50;;;;;;5026996;28;19923;-67
2023/05/07 11:26:03;;;;;;;;;;;20.10;90.60;;;;;;5045464;28;19955;-69
2023/05/07 11:28:29;;;;;;;;;;;20.20;90.60;;;;;;5045187;28;19993;-69
2023/05/07 11:30:55;;;;;;;;;;;20.20;90.50;;;;;;5045313;28;20053;-69
2023/05/07 11:33:22;;;;;;;;;;;20.20;90.40;;;;;;5026817;28;20023;-70
2023/05/07 11:35:47;;;;;;;;;;;20.30;90.40;;;;;;5045312;28;19912;-69
2023/05/07 11:38:13;;;;;;;;;;;20.30;90.50;;;;;;5045274;28;20401;-69
2023/05/07 11:40:51;;;;;;;;;;;20.30;90.50;;;;;;5045590;28;20421;-69
2023/05/07 11:43:17;;;;;;;;;;;20.30;90.50;;;;;;5048568;27;19917;-69
2023/05/07 11:45:42;;;;;;;;;;;20.30;90.50;;;;;;5048609;28;19961;-70
2023/05/07 11:48:08;;;;;;;;;;;20.30;90.60;;;;;;5042239;27;19959;-69
2023/05/07 11:50:33;;;;;;;;;;;20.30;90.70;;;;;;5048391;28;19978;-69
2023/05/07 11:52:59;;;;;;;;;;;20.40;90.60;;;;;;5048156;28;19916;-69
2023/05/07 11:55:25;;;;;;;;;;;20.40;90.50;;;;;;5029738;28;20008;-70
2023/05/07 11:57:51;;;;;;;;;;;20.40;90.50;;;;;;5047668;28;19969;-69
2023/05/07 12:00:17;;;;;;;;;;;20.40;90.40;;;;;;5047791;28;19916;-69
2023/05/07 12:02:43;;;;;;;;;;;20.40;90.50;;;;;;5047061;28;19924;-69
2023/05/07 12:05:08;;;;;;;;;;;20.50;90.40;;;;;;5047824;28;19916;-69
2023/05/07 12:07:34;;;;;;;;;;;20.50;90.30;;;;;;5047330;28;19917;-69
2023/05/07 12:10:04;;;;;;;;;;;20.60;90.20;;;;;;5047596;28;20596;-69
2023/05/07 12:12:29;;;;;;;;;;;20.70;90.40;;;;;;5046974;28;19912;-69
2023/05/07 12:14:55;;;;;;;;;;;20.80;90.20;;;;;;5047527;28;20544;-69
2023/05/07 12:17:20;;;;;;;;;;;20.70;90.20;;;;;;5045869;28;20543;-69
2023/05/07 12:19:46;;;;;;;;;;;20.80;90.30;;;;;;5046133;28;19912;-69
2023/05/07 12:22:12;;;;;;;;;;;20.80;90.20;;;;;;5046722;28;19948;-69
2023/05/07 12:24:56;;;;;;;;;;;20.80;90.30;;;;;;5045589;28;19913;-69
2023/05/07 12:27:22;;;;;;;;;;;20.80;90.20;;;;;;5044503;28;19912;-69
2023/05/07 12:29:48;;;;;;;;;;;20.80;90.40;;;;;;5046501;28;19909;-69
2023/05/07 12:32:17;;;;;;;;;;;20.80;90.40;;;;;;5046535;28;20318;-69
2023/05/07 12:34:43;;;;;;;;;;;20.80;90.30;;;;;;5046771;28;19976;-69
2023/05/07 12:37:09;;;;;;;;;;;20.80;90.30;;;;;;5046790;28;20306;-69
2023/05/07 12:39:35;;;;;;;;;;;20.80;90.40;;;;;;5046951;28;19966;-69
2023/05/07 12:42:01;;;;;;;;;;;20.80;90.40;;;;;;5046489;28;20401;-69
2023/05/07 12:44:30;;;;;;;;;;;20.80;90.40;;;;;;5046763;28;20138;-69
2023/05/07 12:46:56;;;;;;;;;;;20.70;90.50;;;;;;5047091;28;19962;-69
2023/05/07 12:49:22;;;;;;;;;;;20.70;90.60;;;;;;5028812;28;19916;-69
2023/05/07 12:51:48;;;;;;;;;;;20.70;90.70;;;;;;5047008;28;19913;-69
2023/05/07 12:54:27;;;;;;;;;;;20.60;90.70;;;;;;5046265;28;19920;-69
2023/05/07 12:57:00;;;;;;;;;;;20.60;90.80;;;;;;5046947;28;19909;-69
2023/05/07 12:59:39;;;;;;;;;;;20.60;90.90;;;;;;5046620;28;19913;-69
2023/05/07 13:02:05;;;;;;;;;;;20.50;91.00;;;;;;5046444;28;19912;-69
2023/05/07 13:04:31;;;;;;;;;;;20.50;91.10;;;;;;5046517;28;19912;-69
2023/05/07 13:06:56;;;;;;;;;;;20.50;91.10;;;;;;5046756;28;19913;-69
2023/05/07 13:09:21;;;;;;;;;;;20.40;91.00;;;;;;5046777;28;19917;-69
2023/05/07 13:11:47;;;;;;;;;;;20.40;91.10;;;;;;5046425;28;19917;-69
2023/05/07 13:14:13;;;;;;;;;;;20.40;91.20;;;;;;5028106;28;19917;-69
2023/05/07 13:16:38;;;;;;;;;;;20.40;91.10;;;;;;5046318;28;20000;-69
2023/05/07 13:19:03;;;;;;;;;;;20.40;91.20;;;;;;5028348;28;19909;-70
2023/05/07 13:21:31;;;;;;;;;;;20.40;91.20;;;;;;5046438;28;19928;-69
2023/05/07 13:23:57;;;;;;;;;;;20.30;91.20;;;;;;5046187;28;20132;-69
2023/05/07 13:26:23;;;;;;;;;;;20.30;91.30;;;;;;5038032;28;19921;-69
2023/05/07 13:28:49;;;;;;;;;;;20.20;91.30;;;;;;5027809;28;20365;-69
2023/05/07 13:31:14;;;;;;;;;;;20.20;91.30;;;;;;5046314;28;19912;-69
2023/05/07 13:33:40;;;;;;;;;;;20.20;91.40;;;;;;5045885;27;19941;-69
2023/05/07 13:36:05;;;;;;;;;;;20.10;91.50;;;;;;5046302;28;20350;-69
2023/05/07 13:38:31;;;;;;;;;;;20.10;91.50;;;;;;5046106;28;20008;-69
2023/05/07 13:40:56;;;;;;;;;;;20.10;91.60;;;;;;5045990;28;19940;-69
2023/05/07 13:43:22;;;;;;;;;;;20.10;91.60;;;;;;5045638;28;20004;-69
2023/05/07 13:45:47;;;;;;;;;;;20.00;91.70;;;;;;5046103;28;20045;-69
2023/05/07 13:48:13;;;;;;;;;;;20.00;91.70;;;;;;5045769;28;19912;-69
2023/05/07 13:50:38;;;;;;;;;;;19.90;91.80;;;;;;5045715;28;19917;-69
2023/05/07 13:53:04;;;;;;;;;;;19.90;91.80;;;;;;5027423;28;20029;-69
2023/05/07 13:55:30;;;;;;;;;;;19.90;91.90;;;;;;5045201;28;20091;-69
2023/05/07 13:57:56;;;;;;;;;;;19.90;91.90;;;;;;5044961;28;20428;-69
2023/05/07 14:00:22;;;;;;;;;;;19.80;91.90;;;;;;5045612;28;20262;-69
2023/05/07 14:02:48;;;;;;;;;;;19.80;91.90;;;;;;5045068;28;19909;-69
2023/05/07 14:05:13;;;;;;;;;;;19.80;92.00;;;;;;5044090;28;19920;-69
2023/05/07 14:07:39;;;;;;;;;;;19.80;92.00;;;;;;5044891;28;19924;-69
2023/05/07 14:10:05;;;;;;;;;;;19.70;92.00;;;;;;5045841;28;20386;-69